sensor_id;sensor_type;location;lat;lon;timestamp;pressure;altitude;pressure_sealevel;temperature;humidity
56789;BME280;42657;51.650;17.780;2023-02-19T13:19:34;100032.42;;;12.39;37.20
56789;BME280;42657;51.650;17.780;2023-02-19T13:38:37;100071.23;;;5.70;52.93
56789;BME280;42657;51.650;17.780;2023-02-19T14:16:47;100083.81;;;6.37;51.42
56789;BME280;42657;51.650;17.780;2023-02-19T14:23:54;100088.65;;;5.89;52.62
56789;BME280;42657;51.650;17.780;2023-02-19T14:27:41;100089.63;;;5.82;53.26
56789;BME280;42657;51.650;17.780;2023-02-19T14:35:19;100109.55;;;5.37;56.07
56789;BME280;42657;51.650;17.780;2023-02-19T14:43:01;100111.55;;;4.81;57.42
56789;BME280;42657;51.650;17.780;2023-02-19T14:50:53;100125.09;;;4.96;56.45
56789;BME280;42657;51.650;17.780;2023-02-19T15:05:42;100140.46;;;4.85;54.25
56789;BME280;42657;51.650;17.780;2023-02-19T15:09:20;100149.56;;;4.70;54.49
56789;BME280;42657;51.650;17.780;2023-02-19T15:24:14;100170.91;;;4.03;56.85
56789;BME280;42657;51.650;17.780;2023-02-19T15:32:12;100178.55;;;3.77;57.77
56789;BME280;42657;51.650;17.780;2023-02-19T15:35:24;100176.20;;;3.87;57.48
56789;BME280;42657;51.650;17.780;2023-02-19T15:39:11;100181.48;;;4.01;57.46
56789;BME280;42657;51.650;17.780;2023-02-19T15:42:51;100188.22;;;3.94;58.05
56789;BME280;42657;51.650;17.780;2023-02-19T15:50:41;100200.83;;;3.60;59.16
56789;BME280;42657;51.650;17.780;2023-02-19T16:02:10;100234.08;;;3.12;56.94
56789;BME280;42657;51.650;17.780;2023-02-19T16:06:16;100245.65;;;2.96;56.69
56789;BME280;42657;51.650;17.780;2023-02-19T16:13:22;100261.98;;;2.73;56.91
56789;BME280;42657;51.650;17.780;2023-02-19T16:21:08;100258.66;;;2.43;58.73
56789;BME280;42657;51.650;17.780;2023-02-19T16:28:38;100264.45;;;2.24;59.26
56789;BME280;42657;51.650;17.780;2023-02-19T16:32:19;100267.54;;;2.15;59.92
56789;BME280;42657;51.650;17.780;2023-02-19T16:36:17;100273.44;;;2.03;60.48
56789;BME280;42657;51.650;17.780;2023-02-19T16:51:39;100306.89;;;1.53;63.13
56789;BME280;42657;51.650;17.780;2023-02-19T16:54:57;100311.64;;;1.45;63.31
56789;BME280;42657;51.650;17.780;2023-02-19T16:58:39;100306.34;;;1.41;63.08
56789;BME280;42657;51.650;17.780;2023-02-19T17:02:24;100311.48;;;1.41;63.22
56789;BME280;42657;51.650;17.780;2023-02-19T17:06:07;100312.79;;;1.33;63.67
56789;BME280;42657;51.650;17.780;2023-02-19T17:09:50;100317.93;;;1.19;64.30
56789;BME280;42657;51.650;17.780;2023-02-19T17:17:17;100341.59;;;1.03;65.11
56789;BME280;42657;51.650;17.780;2023-02-19T17:21:09;100354.52;;;0.99;65.66
56789;BME280;42657;51.650;17.780;2023-02-19T17:24:46;100369.86;;;0.91;66.10
56789;BME280;42657;51.650;17.780;2023-02-19T17:28:10;100380.14;;;0.82;66.58
56789;BME280;42657;51.650;17.780;2023-02-19T17:31:45;100385.45;;;0.78;67.07
56789;BME280;42657;51.650;17.780;2023-02-19T17:35:27;100380.96;;;0.74;67.48
56789;BME280;42657;51.650;17.780;2023-02-19T17:39:11;100378.45;;;0.76;67.69
56789;BME280;42657;51.650;17.780;2023-02-19T17:42:52;100373.67;;;0.76;67.81
56789;BME280;42657;51.650;17.780;2023-02-19T17:46:34;100374.88;;;0.73;68.09
56789;BME280;42657;51.650;17.780;2023-02-19T17:50:00;100381.27;;;0.64;68.18
56789;BME280;42657;51.650;17.780;2023-02-19T17:53:32;100386.37;;;0.59;68.38
56789;BME280;42657;51.650;17.780;2023-02-19T17:57:15;100385.02;;;0.54;68.62
56789;BME280;42657;51.650;17.780;2023-02-19T18:00:56;100393.00;;;0.49;69.23
56789;BME280;42657;51.650;17.780;2023-02-19T18:04:39;100406.55;;;0.43;69.44
56789;BME280;42657;51.650;17.780;2023-02-19T18:08:21;100409.85;;;0.46;69.66
56789;BME280;42657;51.650;17.780;2023-02-19T18:12:05;100414.36;;;0.55;69.80
56789;BME280;42657;51.650;17.780;2023-02-19T18:15:47;100420.23;;;0.66;69.43
56789;BME280;42657;51.650;17.780;2023-02-19T18:19:30;100428.63;;;0.62;69.30
56789;BME280;42657;51.650;17.780;2023-02-19T18:23:02;100434.39;;;0.49;69.30
56789;BME280;42657;51.650;17.780;2023-02-19T18:30:31;100449.08;;;0.31;69.96
56789;BME280;42657;51.650;17.780;2023-02-19T18:34:02;100451.17;;;0.39;70.18
56789;BME280;42657;51.650;17.780;2023-02-19T18:37:47;100462.60;;;0.50;70.37
56789;BME280;42657;51.650;17.780;2023-02-19T18:41:28;100468.23;;;0.58;70.14
56789;BME280;42657;51.650;17.780;2023-02-19T18:52:17;100474.95;;;0.86;69.35
56789;BME280;42657;51.650;17.780;2023-02-19T18:55:59;100476.71;;;0.86;69.15
56789;BME280;42657;51.650;17.780;2023-02-19T18:59:41;100465.66;;;0.84;69.01
56789;BME280;42657;51.650;17.780;2023-02-19T19:07:06;100479.80;;;0.80;69.06
56789;BME280;42657;51.650;17.780;2023-02-19T19:10:49;100485.37;;;0.75;69.20
56789;BME280;42657;51.650;17.780;2023-02-19T19:14:31;100485.98;;;0.65;69.35
56789;BME280;42657;51.650;17.780;2023-02-19T19:21:34;100488.07;;;0.48;69.78
56789;BME280;42657;51.650;17.780;2023-02-19T19:25:16;100488.30;;;0.37;69.91
56789;BME280;42657;51.650;17.780;2023-02-19T19:28:59;100490.31;;;0.27;70.12
56789;BME280;42657;51.650;17.780;2023-02-19T19:32:41;100495.83;;;0.23;70.58
56789;BME280;42657;51.650;17.780;2023-02-19T19:36:25;100498.88;;;0.13;71.05
56789;BME280;42657;51.650;17.780;2023-02-19T19:40:07;100507.45;;;0.02;71.16
56789;BME280;42657;51.650;17.780;2023-02-19T19:43:51;100507.73;;;-0.06;71.79
56789;BME280;42657;51.650;17.780;2023-02-19T19:47:38;100505.95;;;-0.11;71.94
56789;BME280;42657;51.650;17.780;2023-02-19T19:51:20;100500.92;;;-0.16;72.25
56789;BME280;42657;51.650;17.780;2023-02-19T20:02:30;100521.65;;;-0.21;73.35
56789;BME280;42657;51.650;17.780;2023-02-19T20:06:07;100529.30;;;-0.17;73.52
56789;BME280;42657;51.650;17.780;2023-02-19T20:09:50;100530.05;;;-0.16;73.50
56789;BME280;42657;51.650;17.780;2023-02-19T20:13:45;100534.16;;;-0.13;73.57
56789;BME280;42657;51.650;17.780;2023-02-19T20:17:22;100526.48;;;-0.17;73.33
56789;BME280;42657;51.650;17.780;2023-02-19T20:21:07;100525.99;;;-0.22;73.52
56789;BME280;42657;51.650;17.780;2023-02-19T20:24:49;100522.12;;;-0.25;73.78
56789;BME280;42657;51.650;17.780;2023-02-19T20:28:33;100520.31;;;-0.25;73.68
56789;BME280;42657;51.650;17.780;2023-02-19T20:32:17;100527.40;;;-0.28;73.62
56789;BME280;42657;51.650;17.780;2023-02-19T20:36:01;100539.89;;;-0.33;73.82
56789;BME280;42657;51.650;17.780;2023-02-19T20:39:27;100539.01;;;-0.31;74.08
56789;BME280;42657;51.650;17.780;2023-02-19T20:43:11;100541.68;;;-0.29;74.08
56789;BME280;42657;51.650;17.780;2023-02-19T20:46:55;100546.52;;;-0.30;74.13
56789;BME280;42657;51.650;17.780;2023-02-19T20:50:39;100546.98;;;-0.33;74.07
56789;BME280;42657;51.650;17.780;2023-02-19T20:54:27;100548.98;;;-0.32;74.09
56789;BME280;42657;51.650;17.780;2023-02-19T20:58:10;100549.44;;;-0.31;73.97
56789;BME280;42657;51.650;17.780;2023-02-19T21:05:30;100562.10;;;-0.32;74.05
56789;BME280;42657;51.650;17.780;2023-02-19T21:09:15;100567.08;;;-0.26;73.93
56789;BME280;42657;51.650;17.780;2023-02-19T21:12:57;100573.23;;;-0.29;73.82
56789;BME280;42657;51.650;17.780;2023-02-19T21:16:41;100571.42;;;-0.33;73.88
56789;BME280;42657;51.650;17.780;2023-02-19T21:20:23;100575.70;;;-0.35;73.82
56789;BME280;42657;51.650;17.780;2023-02-19T21:24:00;100579.94;;;-0.32;73.69
56789;BME280;42657;51.650;17.780;2023-02-19T21:27:44;100582.23;;;-0.32;73.66
56789;BME280;42657;51.650;17.780;2023-02-19T21:31:10;100585.41;;;-0.32;73.65
56789;BME280;42657;51.650;17.780;2023-02-19T21:34:55;100585.06;;;-0.30;73.50
56789;BME280;42657;51.650;17.780;2023-02-19T21:38:32;100587.25;;;-0.28;73.34
56789;BME280;42657;51.650;17.780;2023-02-19T21:42:17;100597.45;;;-0.28;73.28
56789;BME280;42657;51.650;17.780;2023-02-19T21:46:00;100605.52;;;-0.24;73.13
56789;BME280;42657;51.650;17.780;2023-02-19T21:49:44;100614.66;;;-0.20;73.02
56789;BME280;42657;51.650;17.780;2023-02-19T21:53:29;100617.77;;;-0.22;72.98
56789;BME280;42657;51.650;17.780;2023-02-19T22:00:40;100622.65;;;-0.30;72.98
56789;BME280;42657;51.650;17.780;2023-02-19T22:04:24;100626.23;;;-0.34;72.91
56789;BME280;42657;51.650;17.780;2023-02-19T22:08:10;100627.08;;;-0.44;73.03
56789;BME280;42657;51.650;17.780;2023-02-19T22:15:32;100624.48;;;-0.70;73.25
56789;BME280;42657;51.650;17.780;2023-02-19T22:19:15;100628.05;;;-0.79;73.42
56789;BME280;42657;51.650;17.780;2023-02-19T22:22:58;100629.88;;;-0.82;73.80
56789;BME280;42657;51.650;17.780;2023-02-19T22:30:23;100626.88;;;-0.74;74.19
56789;BME280;42657;51.650;17.780;2023-02-19T22:34:07;100634.77;;;-0.70;74.45
56789;BME280;42657;51.650;17.780;2023-02-19T22:37:51;100631.69;;;-0.65;74.57
56789;BME280;42657;51.650;17.780;2023-02-19T22:41:26;100631.69;;;-0.53;74.42
56789;BME280;42657;51.650;17.780;2023-02-19T22:45:11;100625.31;;;-0.40;74.25
56789;BME280;42657;51.650;17.780;2023-02-19T22:48:54;100629.94;;;-0.34;73.94
56789;BME280;42657;51.650;17.780;2023-02-19T22:56:24;100623.71;;;-0.35;73.68
56789;BME280;42657;51.650;17.780;2023-02-19T23:00:08;100620.17;;;-0.35;73.62
56789;BME280;42657;51.650;17.780;2023-02-19T23:03:52;100620.27;;;-0.33;73.57
56789;BME280;42657;51.650;17.780;2023-02-19T23:07:37;100618.30;;;-0.31;73.43
56789;BME280;42657;51.650;17.780;2023-02-19T23:11:30;100616.69;;;-0.32;73.54
56789;BME280;42657;51.650;17.780;2023-02-19T23:15:14;100613.83;;;-0.37;73.37
56789;BME280;42657;51.650;17.780;2023-02-19T23:22:34;100620.77;;;-0.45;73.34
56789;BME280;42657;51.650;17.780;2023-02-19T23:26:18;100624.04;;;-0.49;73.37
56789;BME280;42657;51.650;17.780;2023-02-19T23:30:02;100617.92;;;-0.59;73.41
56789;BME280;42657;51.650;17.780;2023-02-19T23:33:43;100615.61;;;-0.70;73.50
56789;BME280;42657;51.650;17.780;2023-02-19T23:41:12;100620.58;;;-0.74;73.65
56789;BME280;42657;51.650;17.780;2023-02-19T23:44:56;100622.29;;;-0.75;73.80
56789;BME280;42657;51.650;17.780;2023-02-19T23:52:19;100609.91;;;-0.82;73.74
56789;BME280;42657;51.650;17.780;2023-02-19T23:56:04;100605.21;;;-0.85;73.78
56789;BME280;42657;51.650;17.780;2023-02-19T23:59:47;100604.73;;;-0.89;73.85
